createdAt,value
2023-02-28T00:00:37.830Z,58.40
2023-02-28T00:03:04.543Z,58.20
2023-02-28T00:05:31.267Z,58.40
2023-02-28T00:07:57.937Z,58.50
2023-02-28T00:10:28.631Z,58.40
2023-02-28T00:12:57.786Z,58.50
2023-02-28T00:15:25.205Z,58.50
2023-02-28T00:17:52.399Z,58.50
2023-02-28T00:20:19.776Z,58.50
2023-02-28T00:22:49.651Z,58.40
2023-02-28T00:25:20.759Z,58.50
2023-02-28T00:27:48.258Z,58.40
2023-02-28T00:30:20.829Z,58.40
2023-02-28T00:32:47.840Z,58.40
2023-02-28T00:35:14.777Z,58.50
2023-02-28T00:37:41.592Z,58.60
2023-02-28T00:40:10.055Z,58.60
2023-02-28T00:42:37.175Z,58.50
2023-02-28T00:45:05.659Z,58.70
2023-02-28T00:47:32.950Z,58.60
2023-02-28T00:50:00.809Z,58.70
2023-02-28T00:52:27.509Z,58.70
2023-02-28T00:54:54.172Z,58.80
2023-02-28T00:57:20.870Z,58.70
2023-02-28T00:59:47.466Z,58.70
2023-02-28T01:02:14.293Z,58.70
2023-02-28T01:04:41.020Z,58.70
2023-02-28T01:07:07.706Z,58.70
2023-02-28T01:09:34.360Z,58.90
2023-02-28T01:12:01.008Z,58.90
2023-02-28T01:14:27.626Z,58.90
2023-02-28T01:16:54.254Z,58.70
2023-02-28T01:19:20.893Z,58.90
2023-02-28T01:21:47.566Z,58.90
2023-02-28T01:24:14.466Z,58.90
2023-02-28T01:26:41.038Z,58.90
2023-02-28T01:29:07.596Z,59.00
2023-02-28T01:31:34.392Z,59.10
2023-02-28T01:34:01.011Z,59.20
2023-02-28T01:36:27.831Z,59.10
2023-02-28T01:38:54.777Z,59.10
2023-02-28T01:41:26.354Z,59.00
2023-02-28T01:43:54.863Z,59.00
2023-02-28T01:46:21.545Z,59.00
2023-02-28T01:49:08.427Z,59.30
2023-02-28T01:51:46.540Z,59.20
2023-02-28T01:54:16.968Z,59.30
2023-02-28T01:57:04.895Z,59.20
2023-02-28T01:59:41.375Z,59.30
2023-02-28T02:02:08.194Z,59.30
2023-02-28T02:04:46.820Z,59.40
2023-02-28T02:07:15.095Z,59.30
2023-02-28T02:09:41.692Z,59.40
2023-02-28T02:12:44.514Z,59.50
2023-02-28T02:15:19.985Z,59.40
2023-02-28T02:17:52.901Z,59.60
2023-02-28T02:20:58.196Z,59.70
2023-02-28T02:23:55.479Z,59.50
2023-02-28T02:26:28.150Z,59.60
2023-02-28T02:29:13.414Z,59.50
2023-02-28T02:31:58.050Z,59.60
2023-02-28T02:34:47.052Z,59.60
2023-02-28T02:37:29.827Z,59.70
2023-02-28T02:39:56.375Z,59.70
2023-02-28T02:42:31.925Z,59.90
2023-02-28T02:45:12.460Z,59.90
2023-02-28T02:47:41.149Z,60.10
2023-02-28T02:50:14.004Z,60.20
2023-02-28T02:52:46.203Z,60.00
2023-02-28T02:55:15.687Z,60.10
2023-02-28T02:58:02.199Z,60.40
2023-02-28T03:00:36.672Z,60.30
2023-02-28T03:03:04.281Z,60.20
2023-02-28T03:05:42.748Z,60.30
2023-02-28T03:08:09.295Z,60.20
2023-02-28T03:10:39.222Z,61.30
2023-02-28T03:13:35.832Z,60.60
2023-02-28T03:16:44.706Z,60.60
2023-02-28T03:19:37.517Z,60.90
2023-02-28T03:22:28.894Z,61.10
2023-02-28T03:25:06.462Z,61.90
2023-02-28T03:27:45.396Z,61.60
2023-02-28T03:30:28.472Z,61.60
2023-02-28T03:33:05.810Z,61.20
2023-02-28T03:35:38.027Z,61.20
2023-02-28T03:38:14.826Z,61.00
2023-02-28T03:40:49.278Z,60.90
2023-02-28T03:43:22.562Z,61.00
2023-02-28T03:45:51.709Z,61.00
2023-02-28T03:48:31.004Z,61.20
2023-02-28T03:51:00.263Z,61.30
2023-02-28T03:53:32.020Z,61.30
2023-02-28T03:56:12.979Z,61.20
2023-02-28T03:58:44.783Z,61.40
2023-02-28T04:01:19.978Z,61.30
2023-02-28T04:03:46.768Z,61.70
2023-02-28T04:06:19.512Z,61.70
2023-02-28T04:08:46.412Z,61.70
2023-02-28T04:11:24.480Z,61.90
2023-02-28T04:13:51.353Z,62.20
2023-02-28T04:16:33.454Z,62.10
2023-02-28T04:19:05.881Z,62.20
2023-02-28T04:21:34.751Z,62.20
2023-02-28T04:24:01.735Z,62.60
2023-02-28T04:26:37.135Z,60.90
2023-02-28T04:29:05.804Z,59.90
2023-02-28T04:31:33.059Z,59.70
2023-02-28T04:34:00.206Z,59.60
2023-02-28T04:36:27.496Z,59.40
2023-02-28T04:38:54.454Z,59.50
2023-02-28T04:41:22.186Z,59.40
2023-02-28T04:43:48.886Z,59.40
2023-02-28T04:46:16.243Z,60.10
2023-02-28T04:48:42.821Z,59.50
2023-02-28T04:51:12.078Z,59.30
2023-02-28T04:53:40.860Z,59.40
2023-02-28T04:56:08.848Z,59.40
2023-02-28T04:58:35.904Z,59.30
2023-02-28T05:01:18.373Z,59.30
2023-02-28T05:03:45.240Z,59.50
2023-02-28T05:06:13.836Z,59.50
2023-02-28T05:08:40.724Z,59.70
2023-02-28T05:11:21.297Z,59.70
2023-02-28T05:13:49.416Z,59.70
2023-02-28T05:16:16.032Z,59.80
2023-02-28T05:18:42.803Z,59.80
2023-02-28T05:21:48.903Z,60.00
2023-02-28T05:24:15.447Z,60.10
2023-02-28T05:26:44.113Z,60.10
2023-02-28T05:29:11.436Z,60.30
2023-02-28T05:31:38.495Z,60.40
2023-02-28T05:34:05.297Z,60.80
2023-02-28T05:36:32.334Z,61.30
2023-02-28T05:38:58.969Z,61.40
2023-02-28T05:41:27.071Z,61.60
2023-02-28T05:43:53.983Z,61.70
2023-02-28T05:46:20.585Z,62.20
2023-02-28T05:48:49.084Z,62.40
2023-02-28T05:51:16.734Z,62.40
2023-02-28T05:53:43.768Z,62.80
2023-02-28T05:56:10.417Z,63.20
2023-02-28T05:58:36.981Z,63.10
2023-02-28T06:01:41.114Z,63.40
2023-02-28T06:04:19.260Z,62.00
2023-02-28T06:06:50.134Z,61.00
2023-02-28T06:09:17.280Z,60.80
2023-02-28T06:11:44.245Z,60.80
2023-02-28T06:14:18.912Z,60.40
2023-02-28T06:16:45.936Z,60.60
2023-02-28T06:19:13.150Z,60.90
2023-02-28T06:21:40.123Z,61.10
2023-02-28T06:24:07.066Z,61.40
2023-02-28T06:26:33.758Z,62.10
2023-02-28T06:29:01.660Z,62.10
2023-02-28T06:31:30.097Z,61.80
2023-02-28T06:33:57.534Z,61.30
2023-02-28T06:36:24.248Z,61.20
2023-02-28T06:38:55.423Z,61.30
2023-02-28T06:41:26.867Z,61.60
2023-02-28T06:43:54.235Z,61.20
2023-02-28T06:46:21.342Z,61.60
2023-02-28T06:48:48.050Z,61.70
2023-02-28T06:51:18.631Z,62.20
2023-02-28T06:53:45.283Z,62.20
2023-02-28T06:56:15.096Z,62.50
2023-02-28T06:58:49.351Z,62.80
2023-02-28T07:01:16.821Z,63.00
2023-02-28T07:03:43.923Z,62.80
2023-02-28T07:06:10.598Z,62.90
2023-02-28T07:08:37.792Z,63.10
2023-02-28T07:11:05.235Z,63.40
2023-02-28T07:13:31.850Z,63.00
2023-02-28T07:16:00.973Z,63.20
2023-02-28T07:18:28.243Z,63.00
2023-02-28T07:20:55.177Z,62.90
2023-02-28T07:23:22.594Z,63.30
2023-02-28T07:25:50.960Z,63.30
2023-02-28T07:28:17.638Z,63.90
2023-02-28T07:30:44.219Z,63.70
2023-02-28T07:33:10.856Z,64.40
2023-02-28T07:35:37.714Z,64.90
2023-02-28T07:38:04.657Z,65.20
2023-02-28T07:40:31.635Z,65.50
2023-02-28T07:43:00.316Z,66.00
2023-02-28T07:45:27.505Z,67.00
2023-02-28T07:47:54.115Z,68.60
2023-02-28T07:50:20.750Z,65.50
2023-02-28T07:52:47.386Z,63.80
2023-02-28T07:55:14.958Z,62.80
2023-02-28T07:57:41.745Z,66.70
2023-02-28T08:00:11.039Z,65.50
2023-02-28T08:02:38.083Z,66.00
2023-02-28T08:05:05.436Z,63.70
2023-02-28T08:07:32.216Z,67.60
2023-02-28T08:09:58.780Z,65.70
2023-02-28T08:12:25.411Z,63.60
2023-02-28T08:14:51.981Z,62.30
2023-02-28T08:17:18.783Z,64.60
2023-02-28T08:19:48.441Z,63.40
2023-02-28T08:22:15.194Z,65.20
2023-02-28T08:24:45.079Z,67.40
2023-02-28T08:27:11.686Z,66.20
2023-02-28T08:29:39.242Z,61.80
2023-02-28T08:32:10.616Z,62.00
2023-02-28T08:34:41.386Z,63.50
2023-02-28T08:37:07.990Z,64.60
2023-02-28T08:39:37.961Z,64.70
2023-02-28T08:42:07.762Z,65.30
2023-02-28T08:44:34.920Z,66.30
2023-02-28T08:47:01.569Z,67.00
2023-02-28T08:49:28.289Z,55.90
2023-02-28T08:51:56.225Z,56.50
2023-02-28T08:54:23.959Z,56.10
2023-02-28T08:56:50.621Z,56.40
2023-02-28T08:59:17.364Z,56.20
2023-02-28T09:01:44.548Z,56.30
2023-02-28T09:04:13.273Z,56.60
2023-02-28T09:06:41.219Z,56.70
2023-02-28T09:09:08.528Z,56.50
2023-02-28T09:11:36.178Z,57.10
2023-02-28T09:14:04.234Z,56.70
2023-02-28T09:16:33.767Z,57.30
2023-02-28T09:19:00.797Z,57.40
2023-02-28T09:21:27.941Z,57.50
2023-02-28T09:23:54.889Z,57.60
2023-02-28T09:26:25.002Z,57.60
2023-02-28T09:28:52.696Z,57.60
2023-02-28T09:31:25.610Z,58.30
2023-02-28T09:33:54.788Z,58.40
2023-02-28T09:36:26.829Z,59.00
2023-02-28T09:38:58.341Z,58.70
2023-02-28T09:41:29.090Z,59.20
2023-02-28T09:44:03.746Z,59.30
2023-02-28T09:46:44.158Z,60.00
2023-02-28T09:49:17.013Z,59.00
2023-02-28T09:51:44.863Z,59.30
2023-02-28T09:54:23.624Z,59.90
2023-02-28T09:57:05.412Z,59.70
2023-02-28T09:59:46.248Z,60.70
2023-02-28T10:02:41.122Z,60.90
2023-02-28T10:05:15.597Z,60.30
2023-02-28T10:08:00.277Z,60.30
2023-02-28T10:10:29.456Z,60.10
2023-02-28T10:12:59.708Z,60.70
2023-02-28T10:15:30.544Z,60.50
2023-02-28T10:18:11.617Z,60.30
2023-02-28T10:20:42.001Z,60.40
2023-02-28T10:23:21.926Z,61.20
2023-02-28T10:25:59.834Z,60.30
2023-02-28T10:28:29.557Z,59.20
2023-02-28T10:30:56.628Z,58.90
2023-02-28T10:33:32.949Z,58.90
2023-02-28T10:35:59.802Z,58.70
2023-02-28T10:38:38.981Z,60.20
2023-02-28T10:41:08.695Z,62.60
2023-02-28T10:43:39.268Z,62.30
2023-02-28T10:46:11.831Z,61.90
2023-02-28T10:48:38.426Z,63.10
2023-02-28T10:51:10.752Z,63.30
2023-02-28T10:54:00.717Z,63.60
2023-02-28T10:56:28.652Z,64.20
2023-02-28T10:59:21.154Z,65.60
2023-02-28T11:01:49.885Z,66.00
2023-02-28T11:04:30.160Z,65.70
2023-02-28T11:07:02.137Z,67.40
2023-02-28T11:09:30.483Z,69.30
2023-02-28T11:11:57.196Z,67.90
2023-02-28T11:14:28.374Z,68.30
2023-02-28T11:16:57.240Z,68.40
2023-02-28T11:19:29.508Z,71.60
2023-02-28T11:22:00.007Z,71.30
2023-02-28T11:24:44.028Z,76.00
2023-02-28T11:27:47.954Z,61.10
2023-02-28T11:30:35.019Z,60.00
2023-02-28T11:33:25.716Z,60.20
2023-02-28T11:35:53.803Z,60.00
2023-02-28T11:38:20.601Z,59.60
2023-02-28T11:40:56.139Z,61.00
2023-02-28T11:43:31.176Z,60.90
2023-02-28T11:46:06.694Z,60.30
2023-02-28T11:48:52.888Z,60.70
2023-02-28T11:51:28.845Z,61.60
2023-02-28T11:54:40.515Z,61.80
2023-02-28T11:57:27.269Z,61.70
2023-02-28T11:59:57.069Z,61.00
2023-02-28T12:02:44.611Z,60.60
2023-02-28T12:05:37.759Z,59.30
2023-02-28T12:08:20.909Z,59.20
2023-02-28T12:10:50.520Z,60.30
2023-02-28T12:13:29.050Z,62.30
2023-02-28T12:16:21.372Z,64.30
2023-02-28T12:19:12.052Z,66.70
2023-02-28T12:21:47.968Z,69.60
2023-02-28T12:24:42.970Z,64.40
2023-02-28T12:27:14.298Z,64.90
2023-02-28T12:30:04.876Z,65.40
2023-02-28T12:32:44.079Z,71.80
2023-02-28T12:35:10.653Z,73.90
2023-02-28T12:37:46.669Z,63.00
2023-02-28T12:40:26.115Z,64.90
2023-02-28T12:43:05.315Z,64.50
2023-02-28T12:46:11.128Z,65.60
2023-02-28T12:48:57.643Z,64.20
2023-02-28T12:51:25.972Z,65.80
2023-02-28T12:54:09.483Z,66.00
2023-02-28T12:56:57.567Z,67.10
2023-02-28T13:00:05.782Z,67.60
2023-02-28T13:02:41.741Z,68.50
2023-02-28T13:05:32.299Z,69.60
2023-02-28T13:08:23.737Z,77.40
2023-02-28T13:10:55.286Z,69.30
2023-02-28T13:13:30.563Z,69.90
2023-02-28T13:16:03.311Z,71.30
2023-02-28T13:18:37.098Z,63.10
2023-02-28T13:21:06.359Z,62.80
2023-02-28T13:23:59.499Z,63.10
2023-02-28T13:26:32.156Z,64.00
2023-02-28T13:29:00.599Z,63.50
2023-02-28T13:31:28.974Z,63.70
2023-02-28T13:33:57.794Z,63.90
2023-02-28T13:36:31.000Z,63.70
2023-02-28T13:39:04.831Z,63.50
2023-02-28T13:41:36.844Z,63.90
2023-02-28T13:44:13.581Z,65.20
2023-02-28T13:47:02.521Z,61.90
2023-02-28T13:49:32.626Z,59.30
2023-02-28T13:52:05.250Z,59.90
2023-02-28T13:54:56.746Z,59.40
2023-02-28T13:57:34.000Z,59.40
2023-02-28T14:00:17.837Z,59.50
2023-02-28T14:02:56.497Z,58.90
2023-02-28T14:05:26.559Z,59.50
2023-02-28T14:07:58.939Z,60.00
2023-02-28T14:10:38.078Z,59.50
2023-02-28T14:13:14.675Z,59.60
2023-02-28T14:15:47.080Z,59.50
2023-02-28T14:18:18.920Z,59.20
2023-02-28T14:20:47.873Z,59.80
2023-02-28T14:23:14.434Z,60.00
2023-02-28T14:26:07.790Z,59.70
2023-02-28T14:28:44.524Z,59.40
2023-02-28T14:31:29.381Z,59.50
2023-02-28T14:34:05.253Z,59.50
2023-02-28T14:36:38.019Z,59.60
2023-02-28T14:39:17.178Z,59.60
2023-02-28T14:41:45.246Z,59.90
2023-02-28T14:44:16.571Z,59.90
2023-02-28T14:46:44.444Z,60.30
2023-02-28T14:49:34.809Z,59.60
2023-02-28T14:52:10.756Z,60.30
2023-02-28T14:54:39.040Z,60.70
2023-02-28T14:57:06.595Z,61.20
2023-02-28T14:59:36.426Z,61.40
2023-02-28T15:02:18.470Z,61.00
2023-02-28T15:04:55.193Z,60.50
2023-02-28T15:07:29.177Z,61.00
2023-02-28T15:10:24.160Z,61.80
2023-02-28T15:12:57.237Z,61.90
2023-02-28T15:16:04.259Z,61.60
2023-02-28T15:18:46.003Z,62.20
2023-02-28T15:21:24.679Z,61.60
2023-02-28T15:23:56.492Z,62.40
2023-02-28T15:26:28.091Z,61.90
2023-02-28T15:29:00.949Z,62.00
2023-02-28T15:31:43.808Z,62.30
2023-02-28T15:34:23.232Z,62.30
2023-02-28T15:36:51.364Z,62.50
2023-02-28T15:39:27.863Z,62.90
2023-02-28T15:42:19.521Z,63.20
2023-02-28T15:44:46.645Z,64.20
2023-02-28T15:47:39.598Z,63.80
2023-02-28T15:50:14.362Z,63.80
2023-02-28T15:52:44.315Z,64.30
2023-02-28T15:55:24.918Z,64.50
2023-02-28T15:57:54.807Z,64.70
2023-02-28T16:00:24.666Z,65.30
2023-02-28T16:02:51.993Z,67.20
2023-02-28T16:05:31.150Z,69.40
2023-02-28T16:08:11.067Z,74.20
2023-02-28T16:10:37.934Z,69.00
2023-02-28T16:13:09.235Z,69.80
2023-02-28T16:15:43.140Z,73.90
2023-02-28T16:18:12.965Z,73.90
2023-02-28T16:20:40.283Z,68.10
2023-02-28T16:23:06.858Z,69.80
2023-02-28T16:25:35.890Z,70.20
2023-02-28T16:28:03.239Z,71.10
2023-02-28T16:30:33.485Z,76.70
2023-02-28T16:33:00.233Z,71.20
2023-02-28T16:35:26.844Z,69.30
2023-02-28T16:37:53.870Z,68.90
2023-02-28T16:40:35.036Z,71.30
2023-02-28T16:43:05.707Z,72.20
2023-02-28T16:45:32.348Z,68.40
2023-02-28T16:47:59.003Z,62.60
2023-02-28T16:50:30.732Z,61.30
2023-02-28T16:52:57.662Z,60.80
2023-02-28T16:55:25.544Z,59.90
2023-02-28T16:58:00.748Z,59.90
2023-02-28T17:00:29.234Z,60.10
2023-02-28T17:02:57.024Z,60.40
2023-02-28T17:05:24.193Z,60.20
2023-02-28T17:07:50.872Z,60.10
2023-02-28T17:10:20.420Z,61.40
2023-02-28T17:12:47.388Z,60.40
2023-02-28T17:15:16.063Z,62.20
2023-02-28T17:17:44.022Z,61.00
2023-02-28T17:20:19.318Z,60.60
2023-02-28T17:22:45.922Z,62.80
2023-02-28T17:25:12.583Z,62.40
2023-02-28T17:27:39.261Z,61.50
2023-02-28T17:30:20.323Z,62.10
2023-02-28T17:32:47.271Z,63.20
2023-02-28T17:35:14.505Z,63.50
2023-02-28T17:37:41.815Z,62.10
2023-02-28T17:40:14.438Z,61.50
2023-02-28T17:42:41.011Z,62.70
2023-02-28T17:45:08.137Z,62.70
2023-02-28T17:47:34.686Z,61.60
2023-02-28T17:50:01.273Z,61.70
2023-02-28T17:52:29.390Z,61.90
2023-02-28T17:54:56.151Z,61.20
2023-02-28T17:57:22.788Z,61.50
2023-02-28T17:59:49.385Z,62.20
2023-02-28T18:02:16.898Z,62.20
2023-02-28T18:04:43.444Z,61.50
2023-02-28T18:07:12.857Z,65.00
2023-02-28T18:09:39.652Z,63.70
2023-02-28T18:12:06.368Z,63.00
2023-02-28T18:14:32.928Z,63.70
2023-02-28T18:16:59.547Z,63.40
2023-02-28T18:19:26.229Z,64.80
2023-02-28T18:21:54.141Z,64.00
2023-02-28T18:24:22.924Z,63.90
2023-02-28T18:26:49.691Z,65.10
2023-02-28T18:29:18.876Z,62.00
2023-02-28T18:31:45.840Z,63.30
2023-02-28T18:34:12.524Z,64.80
2023-02-28T18:36:39.980Z,65.20
2023-02-28T18:39:06.539Z,65.00
2023-02-28T18:41:36.178Z,64.50
2023-02-28T18:44:07.723Z,65.40
2023-02-28T18:46:40.621Z,66.20
2023-02-28T18:49:07.288Z,67.50
2023-02-28T18:51:33.912Z,72.70
2023-02-28T18:54:00.514Z,66.30
2023-02-28T18:56:27.555Z,65.20
2023-02-28T18:58:54.297Z,65.90
2023-02-28T19:01:30.969Z,68.80
2023-02-28T19:04:00.956Z,70.30
2023-02-28T19:06:29.525Z,70.10
2023-02-28T19:08:58.540Z,70.60
2023-02-28T19:11:25.778Z,70.20
2023-02-28T19:13:52.442Z,71.90
2023-02-28T19:16:20.976Z,72.90
2023-02-28T19:18:47.938Z,72.90
2023-02-28T19:21:17.820Z,68.00
2023-02-28T19:23:44.604Z,64.40
2023-02-28T19:26:17.693Z,65.30
2023-02-28T19:28:44.489Z,65.30
2023-02-28T19:31:20.239Z,64.90
2023-02-28T19:33:47.011Z,63.50
2023-02-28T19:36:15.159Z,62.40
2023-02-28T19:38:44.321Z,63.00
2023-02-28T19:41:12.558Z,63.20
2023-02-28T19:43:39.688Z,63.90
2023-02-28T19:46:07.168Z,63.10
2023-02-28T19:48:33.823Z,65.00
2023-02-28T19:51:02.979Z,65.20
2023-02-28T19:53:31.076Z,68.70
2023-02-28T19:55:57.808Z,67.40
2023-02-28T19:58:24.413Z,64.80
2023-02-28T20:00:51.019Z,65.70
2023-02-28T20:03:20.690Z,65.60
2023-02-28T20:05:47.839Z,65.90
2023-02-28T20:08:15.048Z,67.80
2023-02-28T20:10:41.712Z,69.30
2023-02-28T20:13:08.618Z,68.70
2023-02-28T20:15:37.206Z,68.60
2023-02-28T20:18:04.778Z,74.30
2023-02-28T20:20:31.377Z,68.60
2023-02-28T20:22:57.997Z,78.80
2023-02-28T20:25:24.730Z,73.00
2023-02-28T20:27:51.361Z,71.80
2023-02-28T20:30:21.887Z,62.40
2023-02-28T20:32:48.743Z,61.80
2023-02-28T20:35:15.387Z,61.90
2023-02-28T20:37:41.976Z,61.70
2023-02-28T20:40:12.256Z,62.30
2023-02-28T20:42:38.906Z,62.80
2023-02-28T20:45:05.906Z,63.40
2023-02-28T20:47:32.469Z,63.40
2023-02-28T20:49:59.023Z,64.10
2023-02-28T20:52:25.642Z,64.80
2023-02-28T20:54:52.845Z,65.50
2023-02-28T20:57:19.476Z,67.10
2023-02-28T20:59:46.045Z,69.40
2023-02-28T21:02:16.875Z,70.80
2023-02-28T21:04:43.464Z,72.40
2023-02-28T21:07:10.056Z,60.30
2023-02-28T21:09:36.904Z,60.30
2023-02-28T21:12:03.670Z,60.20
2023-02-28T21:14:31.981Z,60.30
2023-02-28T21:16:58.566Z,60.90
2023-02-28T21:19:25.198Z,60.50
2023-02-28T21:21:53.920Z,60.50
2023-02-28T21:24:21.012Z,61.40
2023-02-28T21:26:48.049Z,60.80
2023-02-28T21:29:15.461Z,60.90
2023-02-28T21:31:42.809Z,61.80
2023-02-28T21:34:11.084Z,61.60
2023-02-28T21:36:40.657Z,61.20
2023-02-28T21:39:15.081Z,61.50
2023-02-28T21:41:42.577Z,61.80
2023-02-28T21:44:17.977Z,62.20
2023-02-28T21:46:46.552Z,63.20
2023-02-28T21:49:14.448Z,62.60
2023-02-28T21:51:42.652Z,61.80
2023-02-28T21:54:09.889Z,62.60
2023-02-28T21:56:36.947Z,62.40
2023-02-28T21:59:04.378Z,63.50
2023-02-28T22:01:35.214Z,63.30
2023-02-28T22:04:03.449Z,63.50
2023-02-28T22:06:33.182Z,63.40
2023-02-28T22:09:02.616Z,63.50
2023-02-28T22:11:29.433Z,62.90
2023-02-28T22:13:57.826Z,62.80
2023-02-28T22:16:28.119Z,63.70
2023-02-28T22:18:55.218Z,63.80
2023-02-28T22:21:22.855Z,64.20
2023-02-28T22:23:49.881Z,64.20
2023-02-28T22:26:19.353Z,65.30
2023-02-28T22:28:46.256Z,65.60
2023-02-28T22:31:28.617Z,66.00
2023-02-28T22:33:57.828Z,65.60
2023-02-28T22:36:25.668Z,66.90
2023-02-28T22:38:53.298Z,67.80
2023-02-28T22:41:22.133Z,68.10
2023-02-28T22:43:57.525Z,68.70
2023-02-28T22:46:25.792Z,69.50
2023-02-28T22:48:52.566Z,69.40
2023-02-28T22:51:22.060Z,71.20
2023-02-28T22:53:49.910Z,72.30
2023-02-28T22:56:18.197Z,68.20
2023-02-28T22:58:52.682Z,67.90
2023-02-28T23:01:22.077Z,67.60
2023-02-28T23:03:49.644Z,67.50
2023-02-28T23:06:25.801Z,68.40
2023-02-28T23:08:55.499Z,65.90
2023-02-28T23:11:28.194Z,67.00
2023-02-28T23:14:00.535Z,68.20
2023-02-28T23:16:35.324Z,67.90
2023-02-28T23:19:05.133Z,68.80
2023-02-28T23:21:32.001Z,70.00
2023-02-28T23:24:00.747Z,73.60
2023-02-28T23:26:27.476Z,65.10
2023-02-28T23:28:54.430Z,64.50
2023-02-28T23:31:21.557Z,64.10
2023-02-28T23:33:48.168Z,63.80
2023-02-28T23:36:16.008Z,64.30
2023-02-28T23:38:47.193Z,64.50
2023-02-28T23:41:14.585Z,64.90
2023-02-28T23:43:41.335Z,64.70
2023-02-28T23:46:09.937Z,64.90
2023-02-28T23:48:36.686Z,65.20
2023-02-28T23:51:09.103Z,65.40
2023-02-28T23:53:41.094Z,64.60
2023-02-28T23:56:08.889Z,64.90
2023-02-28T23:58:35.525Z,65.70
